Time;durP1;ratioP1;P1;durP2;ratioP2;P2;SDS_P1;SDS_P2;PMS_P1;PMS_P2;Temp;Humidity;BMP_temperature;BMP_pressure;BME280_temperature;BME280_humidity;BME280_pressure;Samples;Min_cycle;Max_cycle;Signal;HPM_P1;HPM_P2
2023/02/06 00:01:47;;;;;;;11.60;1.88;;;;;;;8.76;59.25;100172.69;5092037;28;20040;-45
2023/02/06 00:04:14;;;;;;;7.63;1.73;;;;;;;8.86;59.46;100169.97;5091800;28;20012;-46
2023/02/06 00:06:41;;;;;;;5.95;1.45;;;;;;;9.02;59.02;100174.50;5090383;28;20122;-45
2023/02/06 00:09:08;;;;;;;6.13;2.35;;;;;;;9.09;58.33;100167.66;5091807;28;20378;-46
2023/02/06 00:11:36;;;;;;;5.35;1.48;;;;;;;9.02;58.58;100169.28;5091672;28;20032;-45
2023/02/06 00:14:05;;;;;;;4.15;1.67;;;;;;;9.02;58.68;100169.28;5091675;28;20077;-45
2023/02/06 00:16:33;;;;;;;9.43;2.10;;;;;;;9.11;58.65;100178.00;5091543;28;20489;-46
2023/02/06 00:19:01;;;;;;;6.95;1.63;;;;;;;9.17;58.30;100167.72;5091662;28;20056;-46
2023/02/06 00:21:30;;;;;;;4.95;1.83;;;;;;;9.23;58.37;100157.59;5091620;28;20026;-45
2023/02/06 00:23:59;;;;;;;6.28;2.42;;;;;;;9.17;58.35;100161.66;5091160;28;20020;-45
2023/02/06 00:26:26;;;;;;;4.22;2.10;;;;;;;9.12;58.16;100162.13;5091522;28;20028;-45
2023/02/06 00:28:53;;;;;;;5.05;2.00;;;;;;;9.07;58.71;100158.34;5090278;28;20039;-45
2023/02/06 00:31:20;;;;;;;11.43;2.20;;;;;;;9.05;58.56;100153.25;5090190;28;20046;-45
2023/02/06 00:33:49;;;;;;;8.88;2.08;;;;;;;9.09;59.34;100159.00;5091562;28;20071;-45
2023/02/06 00:36:17;;;;;;;5.38;1.42;;;;;;;9.19;59.28;100142.22;5095316;28;20031;-45
2023/02/06 00:38:46;;;;;;;7.78;1.80;;;;;;;9.17;58.80;100138.91;5094050;28;20036;-45
2023/02/06 00:41:13;;;;;;;6.00;1.65;;;;;;;9.17;59.09;100140.72;5095518;28;20028;-46
2023/02/06 00:43:40;;;;;;;7.90;1.90;;;;;;;9.14;58.50;100135.78;5095265;28;20059;-45
2023/02/06 00:46:08;;;;;;;4.13;1.67;;;;;;;9.07;59.15;100140.00;5093806;28;20047;-46
2023/02/06 00:48:35;;;;;;;4.80;1.55;;;;;;;8.94;58.90;100140.41;5095164;28;20027;-45
2023/02/06 00:51:02;;;;;;;5.22;1.65;;;;;;;8.72;59.39;100134.69;5095042;28;20111;-45
2023/02/06 00:53:29;;;;;;;4.45;1.85;;;;;;;8.50;59.76;100133.38;5095108;28;20031;-45
2023/02/06 00:55:55;;;;;;;7.97;2.10;;;;;;;8.27;60.30;100124.31;5093718;28;20024;-45
2023/02/06 00:58:23;;;;;;;9.23;1.98;;;;;;;8.04;61.26;100132.59;5094935;28;20035;-45
2023/02/06 01:00:51;;;;;;;5.30;1.80;;;;;;;8.01;62.27;100127.69;5094844;28;20065;-45
2023/02/06 01:03:18;;;;;;;4.72;2.53;;;;;;;7.97;62.02;100131.56;5093579;28;20532;-45
2023/02/06 01:05:47;;;;;;;3.35;1.80;;;;;;;7.94;62.19;100139.69;5094824;28;20012;-45
2023/02/06 01:08:14;;;;;;;6.80;2.45;;;;;;;7.91;62.65;100126.94;5094819;28;20024;-45
2023/02/06 01:10:43;;;;;;;9.00;2.15;;;;;;;7.86;63.16;100122.13;5094768;28;20072;-45
2023/02/06 01:13:11;;;;;;;6.15;2.00;;;;;;;7.80;62.69;100123.53;5094753;28;20024;-45
2023/02/06 01:15:38;;;;;;;4.18;2.05;;;;;;;7.77;63.10;100121.22;5093382;28;20032;-45
2023/02/06 01:18:05;;;;;;;5.07;2.15;;;;;;;7.74;63.22;100131.94;5093373;28;20027;-45
2023/02/06 01:20:32;;;;;;;4.72;1.90;;;;;;;7.72;63.24;100123.44;5093292;28;20024;-45
2023/02/06 01:22:59;;;;;;;15.80;8.07;;;;;;;7.68;63.26;100142.16;5093233;28;20036;-45
2023/02/06 01:25:26;;;;;;;7.70;3.92;;;;;;;7.61;63.75;100136.72;5092717;28;20055;-45
2023/02/06 01:27:53;;;;;;;12.38;8.02;;;;;;;7.59;63.80;100139.47;5093067;28;20032;-45
2023/02/06 01:30:21;;;;;;;7.43;4.20;;;;;;;7.56;63.64;100136.31;5094298;28;20034;-45
2023/02/06 01:32:49;;;;;;;10.02;2.65;;;;;;;7.49;64.19;100143.09;5094312;28;20090;-45
2023/02/06 01:35:17;;;;;;;6.13;2.00;;;;;;;7.46;64.71;100132.91;5094198;28;20028;-45
2023/02/06 01:37:45;;;;;;;8.63;2.10;;;;;;;7.42;64.32;100128.94;5092927;28;20036;-45
2023/02/06 01:40:15;;;;;;;8.90;3.97;;;;;;;7.40;64.44;100132.53;5092870;28;20463;-46
2023/02/06 01:42:42;;;;;;;9.18;2.70;;;;;;;7.39;64.66;100123.06;5092808;28;20028;-45
2023/02/06 01:45:45;;;;;;;4.88;2.00;;;;;;;7.37;64.47;100135.44;5093968;28;20016;-45
2023/02/06 01:48:54;;;;;;;4.35;1.60;;;;;;;7.35;65.04;100139.97;5094137;28;20020;-46
2023/02/06 01:51:30;;;;;;;9.43;2.30;;;;;;;7.30;64.95;100136.97;5093890;28;20047;-45
2023/02/06 01:54:10;;;;;;;7.50;2.00;;;;;;;7.25;64.97;100136.59;5093916;28;20013;-47
2023/02/06 01:57:14;;;;;;;5.30;1.92;;;;;;;7.28;65.47;100130.25;5092572;28;20043;-47
2023/02/06 02:00:02;;;;;;;4.30;2.08;;;;;;;7.36;64.59;100132.97;5093879;28;20494;-46
2023/02/06 02:03:02;;;;;;;5.25;2.03;;;;;;;7.33;64.30;100128.84;5092471;28;20028;-46
2023/02/06 02:05:45;;;;;;;5.93;2.13;;;;;;;7.30;64.87;100112.63;5093539;28;20023;-46
2023/02/06 02:08:55;;;;;;;4.80;2.42;;;;;;;7.30;65.01;100115.25;5092297;28;20043;-46
2023/02/06 02:11:36;;;;;;;7.93;1.75;;;;;;;7.27;64.70;100115.56;5092122;28;20497;-46
2023/02/06 02:14:30;;;;;;;6.03;1.98;;;;;;;7.20;64.50;100117.91;5093805;28;20036;-45
2023/02/06 02:20:58;;;;;;;9.02;8.02;;;;;;;7.22;65.52;100112.53;5093510;28;20050;-46
2023/02/06 02:28:09;;;;;;;5.85;4.90;;;;;;;7.17;65.32;100105.97;5093008;28;20123;-47
2023/02/06 02:31:27;;;;;;;5.68;2.75;;;;;;;7.11;65.09;100116.97;5093190;28;20024;-46
2023/02/06 02:34:35;;;;;;;23.08;19.08;;;;;;;7.08;65.17;100116.44;5093107;28;20573;-47
2023/02/06 02:37:39;;;;;;;124.60;98.15;;;;;;;7.08;65.18;100119.84;5091656;28;20130;-47
2023/02/06 02:40:20;;;;;;;17.02;7.90;;;;;;;7.16;64.58;100101.72;5093293;28;20107;-47
2023/02/06 02:43:57;;;;;;;14.65;5.50;;;;;;;7.05;65.28;100108.91;5091689;28;20032;-47
2023/02/06 02:46:52;;;;;;;5.27;2.73;;;;;;;6.95;64.62;100112.34;5091465;28;20024;-46
2023/02/06 02:49:37;;;;;;;7.60;2.92;;;;;;;6.83;65.16;100113.47;5091545;28;20755;-46
2023/02/06 02:52:06;;;;;;;7.47;2.85;;;;;;;6.77;64.78;100127.09;5092817;28;20020;-47
2023/02/06 02:54:40;;;;;;;14.55;3.45;;;;;;;6.86;65.24;100115.81;5092787;28;20115;-46
2023/02/06 02:57:28;;;;;;;5.53;2.85;;;;;;;7.08;66.11;100119.84;5092619;28;20020;-47
2023/02/06 03:00:06;;;;;;;4.82;2.70;;;;;;;7.33;65.71;100101.91;5091325;28;20072;-46
2023/02/06 03:02:48;;;;;;;3.88;2.47;;;;;;;7.58;65.61;100097.78;5092674;28;20058;-47
2023/02/06 03:05:26;;;;;;;10.18;2.40;;;;;;;7.77;64.98;100091.66;5091116;28;20042;-46
2023/02/06 03:08:50;;;;;;;6.22;2.00;;;;;;;7.87;63.72;100102.88;5092421;28;20020;-46
2023/02/06 03:12:02;;;;;;;3.47;1.80;;;;;;;7.92;63.61;100113.69;5092242;28;20093;-45
2023/02/06 03:14:49;;;;;;;5.20;2.40;;;;;;;7.82;62.36;100120.75;5092359;28;20024;-46
2023/02/06 03:18:21;;;;;;;9.95;2.47;;;;;;;7.60;63.21;100121.97;5091493;28;20152;-46
2023/02/06 03:21:08;;;;;;;14.00;3.15;;;;;;;7.87;63.80;100110.72;5070932;28;20032;-46
2023/02/06 03:24:23;;;;;;;8.27;2.40;;;;;;;7.78;63.30;100115.00;5091147;28;20028;-47
2023/02/06 03:27:18;;;;;;;4.47;2.13;;;;;;;7.67;63.70;100125.69;5090692;28;20555;-45
2023/02/06 03:30:03;;;;;;;3.65;1.80;;;;;;;7.51;62.79;100128.91;5092047;28;20044;-47
2023/02/06 03:33:07;;;;;;;10.07;2.40;;;;;;;7.39;63.29;100125.66;5091993;28;20026;-46
2023/02/06 03:35:49;;;;;;;4.68;2.30;;;;;;;7.54;63.07;100126.00;5090684;28;20047;-47
2023/02/06 03:38:35;;;;;;;10.48;3.30;;;;;;;7.57;62.56;100119.69;5091984;28;20016;-47
2023/02/06 03:41:50;;;;;;;5.85;2.13;;;;;;;7.55;63.01;100121.63;5092277;28;20397;-47
2023/02/06 03:44:57;;;;;;;4.97;2.17;;;;;;;7.65;63.33;100132.03;5092044;28;20107;-47
2023/02/06 03:47:25;;;;;;;5.88;2.10;;;;;;;7.72;63.20;100138.28;5090629;28;20511;-46
2023/02/06 03:50:04;;;;;;;9.15;2.30;;;;;;;7.85;62.64;100140.56;5091846;28;20047;-47
2023/02/06 03:53:05;;;;;;;4.88;2.33;;;;;;;8.12;62.86;100135.28;5090594;28;20039;-45
2023/02/06 03:55:55;;;;;;;9.32;2.20;;;;;;;8.37;61.60;100132.91;5090580;28;20208;-46
2023/02/06 03:58:32;;;;;;;9.70;2.65;;;;;;;8.28;61.68;100126.78;5090493;28;20032;-47
2023/02/06 04:01:21;;;;;;;7.50;2.50;;;;;;;8.11;62.74;100131.06;5090397;28;20028;-47
2023/02/06 04:03:58;;;;;;;4.47;2.13;;;;;;;8.11;62.59;100130.19;5091777;28;20032;-47
2023/02/06 04:06:41;;;;;;;4.60;2.10;;;;;;;8.14;62.55;100135.16;5090315;28;20021;-47
2023/02/06 04:09:29;;;;;;;8.90;2.30;;;;;;;8.19;62.72;100141.59;5092349;28;20031;-46
2023/02/06 04:12:17;;;;;;;9.45;2.72;;;;;;;8.29;62.31;100133.66;5095836;28;20493;-46
2023/02/06 04:15:02;;;;;;;4.38;2.65;;;;;;;8.15;61.31;100139.41;5095828;28;20063;-47
2023/02/06 04:17:28;;;;;;;6.30;2.73;;;;;;;7.86;62.25;100136.97;5094154;28;20020;-46
2023/02/06 04:20:19;;;;;;;5.65;2.20;;;;;;;7.89;62.57;100134.91;5094367;28;20262;-47
2023/02/06 04:23:09;;;;;;;6.95;2.75;;;;;;;7.66;63.16;100144.91;5094329;28;20505;-46
2023/02/06 04:25:35;;;;;;;5.38;2.70;;;;;;;7.48;63.75;100139.63;5094010;28;20048;-46
2023/02/06 04:28:13;;;;;;;5.68;2.63;;;;;;;7.51;64.00;100141.97;5095592;28;20040;-47
2023/02/06 04:30:59;;;;;;;13.38;2.72;;;;;;;7.64;64.15;100133.78;5095525;28;20024;-46
2023/02/06 04:33:41;;;;;;;5.90;2.70;;;;;;;7.61;63.06;100139.31;5095494;28;20043;-46
2023/02/06 04:36:07;;;;;;;4.88;2.47;;;;;;;7.50;64.00;100129.88;5095395;28;20032;-46
2023/02/06 04:38:33;;;;;;;7.75;2.95;;;;;;;7.57;63.90;100133.56;5077131;28;20029;-45
2023/02/06 04:41:21;;;;;;;7.22;2.70;;;;;;;7.58;63.71;100137.00;5095226;28;20039;-45
2023/02/06 04:44:03;;;;;;;9.23;2.63;;;;;;;7.57;64.03;100130.94;5095278;28;20016;-47
2023/02/06 04:46:29;;;;;;;5.43;2.70;;;;;;;7.51;63.89;100135.94;5095128;28;20133;-46
2023/02/06 04:48:56;;;;;;;5.35;2.90;;;;;;;7.63;64.38;100139.19;5095156;28;20575;-46
2023/02/06 04:51:23;;;;;;;9.35;3.03;;;;;;;7.74;63.49;100141.59;5093798;28;20445;-46
2023/02/06 04:53:50;;;;;;;9.55;3.30;;;;;;;7.63;63.65;100134.78;5095113;28;20091;-46
2023/02/06 04:56:25;;;;;;;5.82;3.33;;;;;;;7.60;63.95;100140.28;5095054;28;20032;-46
2023/02/06 04:58:59;;;;;;;5.65;3.28;;;;;;;7.73;63.89;100151.22;5093719;28;20424;-46
2023/02/06 05:01:42;;;;;;;6.05;2.67;;;;;;;8.00;63.45;100155.59;5094683;28;20107;-47
2023/02/06 05:04:13;;;;;;;3.92;3.03;;;;;;;8.11;62.98;100156.34;5094905;28;20019;-46
2023/02/06 05:06:49;;;;;;;9.32;3.45;;;;;;;8.25;62.71;100150.63;5094756;28;20032;-47
2023/02/06 05:09:32;;;;;;;9.43;2.72;;;;;;;8.36;62.54;100149.56;5093506;28;20111;-47
2023/02/06 05:12:07;;;;;;;5.28;2.92;;;;;;;8.54;62.25;100150.41;5094756;28;20044;-46
2023/02/06 05:14:50;;;;;;;6.70;3.50;;;;;;;8.64;61.76;100152.13;5093347;28;20055;-47
2023/02/06 05:17:24;;;;;;;11.50;3.47;;;;;;;8.65;61.12;100146.72;5094502;28;20020;-47
2023/02/06 05:20:05;;;;;;;10.43;3.40;;;;;;;8.53;62.14;100153.19;5094552;28;20559;-47
2023/02/06 05:22:38;;;;;;;7.40;3.25;;;;;;;8.59;61.86;100144.72;5092331;28;20032;-46
2023/02/06 05:25:24;;;;;;;8.50;3.75;;;;;;;8.54;61.76;100152.22;5090097;28;20048;-46
2023/02/06 05:28:06;;;;;;;;;;;;;;;8.56;61.84;100164.16;5094866;28;20044;-48
2023/02/06 05:30:37;;;;;;;27.08;6.72;;;;;;;8.80;61.93;100149.66;5094295;28;19911;-46
2023/02/06 05:33:10;;;;;;;12.23;5.78;;;;;;;9.15;61.30;100146.09;5093104;28;20032;-47
2023/02/06 05:35:40;;;;;;;8.60;4.53;;;;;;;9.28;59.91;100147.50;5094248;28;20032;-47
2023/02/06 05:38:06;;;;;;;11.68;5.30;;;;;;;9.03;59.73;100154.38;5094258;28;20030;-47
2023/02/06 05:40:38;;;;;;;11.77;4.60;;;;;;;8.91;59.99;100148.56;5092821;28;20569;-46
2023/02/06 05:43:06;;;;;;;7.35;4.50;;;;;;;8.82;60.30;100152.94;5094122;28;20489;-46
2023/02/06 05:45:33;;;;;;;10.02;4.10;;;;;;;8.82;60.46;100155.56;5092711;28;20571;-46
2023/02/06 05:47:59;;;;;;;8.07;3.80;;;;;;;8.90;60.53;100144.31;5094002;28;20055;-46
2023/02/06 05:50:27;;;;;;;9.75;4.45;;;;;;;9.00;60.38;100145.84;5094055;28;20025;-46
2023/02/06 05:52:55;;;;;;;8.15;4.53;;;;;;;9.22;60.06;100148.94;5093993;28;20489;-46
2023/02/06 05:55:23;;;;;;;5.88;3.97;;;;;;;9.42;59.36;100146.91;5093873;28;20130;-46
2023/02/06 05:57:49;;;;;;;7.15;3.92;;;;;;;9.56;58.87;100150.75;5093834;28;20491;-46
2023/02/06 06:00:16;;;;;;;6.65;4.00;;;;;;;9.66;58.36;100161.94;5092759;28;20028;-47
2023/02/06 06:02:43;;;;;;;7.15;4.10;;;;;;;9.67;58.27;100162.75;5093635;28;20020;-47
2023/02/06 06:05:14;;;;;;;10.38;4.28;;;;;;;9.63;58.05;100171.91;5093536;28;20030;-46
2023/02/06 06:07:54;;;;;;;6.82;4.45;;;;;;;9.55;57.86;100173.50;5092337;28;20524;-47
2023/02/06 06:10:26;;;;;;;15.77;5.28;;;;;;;9.53;57.86;100182.50;5092391;28;20027;-47
2023/02/06 06:12:59;;;;;;;9.05;4.97;;;;;;;9.60;57.90;100173.03;5093833;28;20110;-46
2023/02/06 06:15:34;;;;;;;8.82;4.32;;;;;;;9.60;57.92;100178.28;5093523;28;20035;-47
2023/02/06 06:18:03;;;;;;;9.10;5.13;;;;;;;9.64;57.78;100178.75;5093280;28;20107;-47
2023/02/06 06:20:30;;;;;;;15.05;5.65;;;;;;;9.80;57.58;100182.28;5093636;28;20035;-46
2023/02/06 06:23:04;;;;;;;9.10;5.03;;;;;;;9.91;57.36;100186.41;5092083;28;20521;-46
2023/02/06 06:25:30;;;;;;;7.47;5.13;;;;;;;9.98;57.17;100192.69;5089439;28;20048;-46
2023/02/06 06:27:57;;;;;;;12.25;5.15;;;;;;;10.08;57.36;100186.47;5091952;28;20024;-46
2023/02/06 06:30:41;;;;;;;10.85;5.07;;;;;;;10.20;57.11;100182.56;5093098;28;20032;-46
2023/02/06 06:33:09;;;;;;;9.95;5.07;;;;;;;10.12;56.80;100188.63;5091549;28;20417;-47
2023/02/06 06:35:38;;;;;;;10.75;5.18;;;;;;;9.98;56.57;100187.44;5093100;28;20039;-47
2023/02/06 06:38:07;;;;;;;8.48;5.30;;;;;;;9.97;57.23;100192.84;5091798;28;20571;-46
2023/02/06 06:40:36;;;;;;;10.35;5.63;;;;;;;10.05;57.12;100197.28;5091780;28;20481;-46
2023/02/06 06:43:05;;;;;;;16.23;5.43;;;;;;;10.04;56.90;100196.47;5092950;28;20024;-46
2023/02/06 06:45:33;;;;;;;7.35;5.15;;;;;;;10.11;57.21;100199.28;5091557;28;20017;-46
2023/02/06 06:48:00;;;;;;;9.15;4.60;;;;;;;10.10;56.36;100202.88;5092875;28;20016;-46
2023/02/06 06:50:27;;;;;;;10.38;5.53;;;;;;;9.94;56.17;100203.63;5092852;28;20550;-46
2023/02/06 06:52:54;;;;;;;8.55;6.03;;;;;;;9.88;56.61;100196.41;5092678;28;20073;-47
2023/02/06 06:55:24;;;;;;;39.63;22.05;;;;;;;9.88;56.18;100192.00;5092696;28;20102;-47
2023/02/06 06:57:58;;;;;;;28.65;8.68;;;;;;;9.76;55.97;100198.50;5092691;28;20604;-46
2023/02/06 07:00:24;;;;;;;10.75;5.85;;;;;;;9.66;56.10;100196.00;5092654;28;20032;-47
2023/02/06 07:03:08;;;;;;;11.65;7.07;;;;;;;9.74;55.88;100208.31;5092538;28;20516;-47
2023/02/06 07:05:40;;;;;;;11.48;6.30;;;;;;;9.63;56.13;100206.78;5092382;28;20110;-47
2023/02/06 07:08:07;;;;;;;8.20;5.75;;;;;;;9.54;55.88;100200.69;5092574;28;20028;-46
2023/02/06 07:10:34;;;;;;;10.30;5.97;;;;;;;9.52;55.86;100205.28;5092376;28;20035;-46
2023/02/06 07:13:01;;;;;;;10.32;6.55;;;;;;;9.49;56.42;100213.44;5093014;28;20382;-46
2023/02/06 07:15:29;;;;;;;8.50;6.00;;;;;;;9.54;57.01;100215.59;5092407;28;20047;-46
2023/02/06 07:17:58;;;;;;;9.43;6.30;;;;;;;9.72;56.98;100210.28;5092209;28;20024;-46
2023/02/06 07:20:26;;;;;;;11.85;6.00;;;;;;;9.72;56.13;100210.28;5090962;28;20516;-46
2023/02/06 07:22:57;;;;;;;18.05;7.47;;;;;;;9.51;55.42;100218.53;5092299;28;20394;-46
2023/02/06 07:25:24;;;;;;;10.10;7.55;;;;;;;9.14;55.73;100211.75;5091983;28;20207;-46
2023/02/06 07:27:52;;;;;;;8.63;6.00;;;;;;;8.92;57.35;100210.44;5092297;28;20024;-46
2023/02/06 07:30:21;;;;;;;6.35;5.47;;;;;;;9.09;57.56;100221.84;5090883;28;20020;-46
2023/02/06 07:32:48;;;;;;;9.82;6.35;;;;;;;9.08;57.26;100228.09;5073988;28;20057;-46
2023/02/06 07:35:17;;;;;;;10.70;7.03;;;;;;;8.91;57.39;100224.50;5090892;28;20028;-46
2023/02/06 07:37:45;;;;;;;14.10;7.53;;;;;;;8.88;58.32;100230.03;5092069;28;20028;-46
2023/02/06 07:40:12;;;;;;;16.00;7.30;;;;;;;8.99;58.52;100222.78;5090739;28;20063;-46
2023/02/06 07:42:39;;;;;;;14.15;7.82;;;;;;;9.12;58.50;100219.75;5092022;28;20374;-46
2023/02/06 07:45:15;;;;;;;13.18;6.53;;;;;;;9.19;57.80;100225.19;5089936;28;20085;-46
2023/02/06 07:47:46;;;;;;;12.70;5.65;;;;;;;9.08;57.12;100220.22;5092027;28;20143;-46
2023/02/06 07:50:17;;;;;;;8.38;6.22;;;;;;;9.12;57.27;100217.13;5090549;28;20036;-46
2023/02/06 07:52:47;;;;;;;12.60;6.47;;;;;;;9.28;56.92;100228.72;5091972;28;20109;-46
2023/02/06 07:55:21;;;;;;;19.48;7.30;;;;;;;9.16;57.08;100223.72;5090560;28;20489;-46
2023/02/06 07:57:52;;;;;;;12.68;5.97;;;;;;;9.25;57.00;100227.19;5090621;28;20036;-46
2023/02/06 08:00:28;;;;;;;13.98;7.07;;;;;;;9.34;56.49;100226.28;5091710;28;20067;-46
2023/02/06 08:02:57;;;;;;;11.68;6.68;;;;;;;9.27;56.75;100220.00;5091788;28;20032;-47
2023/02/06 08:05:44;;;;;;;13.10;6.03;;;;;;;9.29;56.31;100218.06;5090329;28;20035;-46
2023/02/06 08:08:19;;;;;;;14.02;6.25;;;;;;;9.26;55.74;100226.25;5091846;28;20036;-47
2023/02/06 08:10:45;;;;;;;11.05;6.45;;;;;;;9.26;55.45;100228.03;5091733;28;20489;-46
2023/02/06 08:13:14;;;;;;;14.15;6.50;;;;;;;9.28;56.03;100232.16;5091616;28;20028;-46
2023/02/06 08:15:51;;;;;;;14.88;6.82;;;;;;;9.27;55.88;100232.28;5090345;28;20032;-46
2023/02/06 08:18:20;;;;;;;8.80;6.53;;;;;;;9.15;56.15;100236.94;5091532;28;20028;-47
2023/02/06 08:20:51;;;;;;;13.85;6.72;;;;;;;9.34;57.14;100228.91;5090430;28;20511;-46
2023/02/06 08:23:22;;;;;;;12.02;6.53;;;;;;;9.75;56.40;100225.69;5090290;28;20503;-46
2023/02/06 08:25:57;;;;;;;18.92;7.30;;;;;;;9.99;55.82;100215.28;5091206;28;20047;-46
2023/02/06 08:28:25;;;;;;;8.23;5.80;;;;;;;10.27;54.69;100214.25;5091448;28;20032;-46
2023/02/06 08:30:56;;;;;;;16.73;5.90;;;;;;;10.41;54.43;100218.88;5090229;28;20044;-46
2023/02/06 08:33:27;;;;;;;12.75;6.90;;;;;;;10.66;54.88;100214.47;5090204;28;20032;-46
2023/02/06 08:35:55;;;;;;;10.85;6.25;;;;;;;10.98;52.83;100218.91;5091566;28;20028;-46
2023/02/06 08:38:22;;;;;;;10.60;6.03;;;;;;;11.19;52.17;100220.25;5090211;28;20559;-46
2023/02/06 08:40:53;;;;;;;10.52;5.90;;;;;;;11.33;51.97;100221.38;5090170;28;20413;-46
2023/02/06 08:43:33;;;;;;;8.27;5.70;;;;;;;11.50;51.33;100224.78;5091551;28;20020;-47
2023/02/06 08:46:02;;;;;;;8.52;5.82;;;;;;;11.42;50.71;100227.41;5091405;28;20506;-46
2023/02/06 08:48:44;;;;;;;12.60;6.43;;;;;;;11.57;51.13;100225.75;5090089;28;20119;-46
2023/02/06 08:51:19;;;;;;;11.15;6.25;;;;;;;11.83;50.46;100227.28;5090213;28;20111;-46
2023/02/06 08:53:50;;;;;;;;;;;;;;;11.76;49.91;100242.94;5091828;28;20027;-46
2023/02/06 08:56:20;;;;;;;9.20;6.45;;;;;;;11.52;49.47;100252.53;5093671;28;19915;-47
2023/02/06 08:58:50;;;;;;;9.20;6.10;;;;;;;11.30;49.95;100246.16;5094993;28;20024;-47
2023/02/06 09:01:45;;;;;;;17.42;8.73;;;;;;;11.58;50.22;100251.84;5093580;28;20520;-46
2023/02/06 09:04:15;;;;;;;13.57;7.50;;;;;;;11.67;49.09;100250.03;5095028;28;20024;-45
2023/02/06 09:06:51;;;;;;;13.48;8.35;;;;;;;11.68;49.14;100258.75;5093480;28;20402;-46
2023/02/06 09:09:18;;;;;;;13.13;6.40;;;;;;;12.06;48.82;100256.34;5095078;28;20032;-47
2023/02/06 09:11:46;;;;;;;11.13;6.30;;;;;;;12.47;48.41;100253.50;5093415;28;20082;-47
2023/02/06 09:14:21;;;;;;;11.27;6.00;;;;;;;12.50;47.54;100256.63;5093405;28;20147;-46
2023/02/06 09:16:49;;;;;;;;;;;;;;;12.42;47.94;100259.28;5093821;28;20036;-47
2023/02/06 09:19:19;;;;;;;9.30;5.28;;;;;;;12.24;47.46;100262.19;5094670;28;19908;-46
2023/02/06 09:21:56;;;;;;;10.13;5.47;;;;;;;12.10;47.42;100262.91;5093296;28;20021;-47
2023/02/06 09:24:37;;;;;;;12.18;6.60;;;;;;;11.76;48.20;100264.78;5094598;28;20056;-47
2023/02/06 09:27:06;;;;;;;15.65;6.60;;;;;;;11.32;48.90;100269.66;5092455;28;20044;-47
2023/02/06 09:29:47;;;;;;;11.45;6.10;;;;;;;11.09;50.41;100275.59;5093130;28;20040;-46
2023/02/06 09:32:16;;;;;;;11.52;6.45;;;;;;;11.16;50.24;100273.91;5094447;28;20030;-46
2023/02/06 09:34:45;;;;;;;7.45;6.18;;;;;;;11.37;49.89;100277.88;5094374;28;20020;-46
2023/02/06 09:37:16;;;;;;;10.93;6.60;;;;;;;11.53;49.42;100274.38;5094256;28;20039;-46
2023/02/06 09:39:44;;;;;;;9.85;6.63;;;;;;;11.53;49.29;100280.47;5094342;28;20028;-46
2023/02/06 09:42:37;;;;;;;16.13;5.85;;;;;;;11.51;49.04;100276.34;5094232;28;20040;-47
2023/02/06 09:45:19;;;;;;;17.10;6.55;;;;;;;11.49;49.08;100279.16;5093990;28;20028;-46
2023/02/06 09:48:27;;;;;;;7.47;5.93;;;;;;;11.47;48.59;100278.50;5094138;28;20514;-46
2023/02/06 09:51:13;;;;;;;11.70;6.78;;;;;;;11.46;48.68;100282.13;5089087;28;20120;-46
2023/02/06 09:54:08;;;;;;;;;;;;;;;11.75;48.87;100280.75;5094332;28;20035;-47
2023/02/06 09:57:02;;;;;;;13.43;6.25;;;;;;;11.96;48.51;100285.50;5093609;28;19960;-46
2023/02/06 10:03:38;;;;;;;12.65;7.45;;;;;;;13.12;46.83;100289.09;5093997;28;20574;-47
2023/02/06 10:06:26;;;;;;;17.20;8.63;;;;;;;13.46;45.50;100287.84;5093537;28;20559;-47
2023/02/06 10:09:34;;;;;;;16.67;6.53;;;;;;;13.14;45.18;100276.59;5091974;28;20028;-47
2023/02/06 10:12:39;;;;;;;12.88;6.53;;;;;;;12.93;46.45;100264.88;5092283;28;20031;-48
2023/02/06 10:15:50;;;;;;;9.93;5.82;;;;;;;13.13;45.52;100264.38;5093431;28;20032;-47
2023/02/06 10:19:04;;;;;;;18.35;6.32;;;;;;;13.33;45.46;100265.56;5093344;28;20055;-47
2023/02/06 10:22:14;;;;;;;9.82;6.40;;;;;;;13.73;44.67;100260.06;5093351;28;20099;-47
2023/02/06 10:25:20;;;;;;;12.70;5.97;;;;;;;15.37;43.41;100263.84;5091925;28;20386;-46
2023/02/06 10:28:29;;;;;;;9.00;6.07;;;;;;;15.88;40.50;100264.59;5093396;28;20044;-47
2023/02/06 10:31:54;;;;;;;8.88;5.38;;;;;;;15.70;39.70;100257.94;5087447;28;20088;-47
2023/02/06 10:35:10;;;;;;;14.00;6.22;;;;;;;15.56;40.30;100257.03;5093278;28;20031;-47
2023/02/06 10:38:14;;;;;;;9.25;5.50;;;;;;;15.44;40.09;100249.84;5093094;28;20019;-47
2023/02/06 10:41:02;;;;;;;8.68;4.75;;;;;;;15.12;40.13;100258.13;5093005;28;20424;-47
2023/02/06 10:43:58;;;;;;;8.70;5.43;;;;;;;15.08;40.07;100264.00;5092911;28;20024;-47
2023/02/06 10:46:49;;;;;;;8.60;4.60;;;;;;;14.97;40.49;100252.94;5092778;28;20070;-47
2023/02/06 10:50:25;;;;;;;8.45;5.72;;;;;;;14.68;40.51;100255.72;5092871;28;20046;-47
2023/02/06 10:53:30;;;;;;;11.75;4.97;;;;;;;14.33;40.90;100255.53;5066592;28;20508;-46
2023/02/06 10:56:21;;;;;;;14.45;5.00;;;;;;;13.96;41.72;100255.50;5092750;28;20020;-47
2023/02/06 10:59:00;;;;;;;8.55;5.50;;;;;;;13.98;41.77;100260.56;5092616;28;20086;-46
2023/02/06 11:01:38;;;;;;;15.55;4.82;;;;;;;14.21;41.36;100249.91;5091421;28;20028;-47
2023/02/06 11:04:14;;;;;;;10.25;5.53;;;;;;;14.82;40.49;100244.25;5092644;28;20103;-46
2023/02/06 11:06:45;;;;;;;8.85;5.55;;;;;;;14.88;40.00;100242.69;5092550;28;20035;-47
2023/02/06 11:09:19;;;;;;;9.43;4.90;;;;;;;14.67;39.94;100256.69;5092453;28;20085;-47
2023/02/06 11:11:50;;;;;;;12.60;4.93;;;;;;;14.55;40.30;100249.25;5092594;28;20024;-47
2023/02/06 11:14:45;;;;;;;;;;;;;;;;;;;;;
2023/02/06 11:17:40;;;;;;;9.38;5.07;;;;;;;15.03;39.40;100232.88;5090896;28;20066;-47
2023/02/06 11:20:38;;;;;;;7.65;5.47;;;;;;;14.88;39.24;100217.06;5090208;28;20062;-47
2023/02/06 11:23:28;;;;;;;6.20;4.85;;;;;;;15.10;38.96;100223.13;5091065;28;20039;-47
2023/02/06 11:26:16;;;;;;;6.30;4.65;;;;;;;15.28;38.31;100216.56;5090136;28;20040;-47
2023/02/06 11:29:43;;;;;;;9.05;4.70;;;;;;;15.17;38.05;100223.19;5091893;28;20036;-47
2023/02/06 11:32:47;;;;;;;66.53;60.00;;;;;;;14.94;38.17;100215.50;5092100;28;20056;-48
2023/02/06 11:36:17;;;;;;;16.10;10.85;;;;;;;14.55;38.93;100222.84;5009953;28;20597;-47
2023/02/06 11:39:03;;;;;;;7.47;6.05;;;;;;;14.29;39.74;100218.09;4986015;28;20053;-47
2023/02/06 11:41:39;;;;;;;7.45;5.97;;;;;;;14.30;39.67;100211.81;4993463;28;20392;-48
2023/02/06 11:44:16;;;;;;;9.77;5.65;;;;;;;14.37;39.83;100209.25;5009906;28;20034;-47
2023/02/06 11:46:55;;;;;;;5.90;4.90;;;;;;;14.47;39.46;100203.66;5009681;28;20080;-48
2023/02/06 11:49:29;;;;;;;6.05;5.47;;;;;;;14.37;39.89;100198.69;5009765;28;20042;-47
2023/02/06 11:51:59;;;;;;;8.68;5.45;;;;;;;14.42;39.97;100191.00;5009866;28;20116;-47
2023/02/06 11:54:32;;;;;;;5.72;5.13;;;;;;;14.66;39.90;100196.94;4977301;28;20034;-47
2023/02/06 11:57:22;;;;;;;7.32;5.72;;;;;;;14.92;39.45;100189.25;4993241;28;20141;-47
2023/02/06 12:00:14;;;;;;;5.68;4.43;;;;;;;15.04;38.42;100183.44;5009744;28;20109;-47
2023/02/06 12:02:57;;;;;;;7.38;5.32;;;;;;;15.16;39.46;100177.41;5009673;28;20125;-47
2023/02/06 12:05:33;;;;;;;5.30;4.72;;;;;;;16.01;37.99;100179.88;5009604;28;20602;-47
2023/02/06 12:08:22;;;;;;;7.40;4.65;;;;;;;16.49;36.50;100174.50;4994301;28;20044;-45
2023/02/06 12:11:03;;;;;;;6.53;5.22;;;;;;;16.85;35.83;100175.97;5092043;28;20397;-45
2023/02/06 12:13:40;;;;;;;6.43;4.97;;;;;;;17.03;35.52;100177.19;5091785;28;20035;-45
2023/02/06 12:16:19;;;;;;;10.95;5.30;;;;;;;17.14;35.28;100163.28;5091770;28;20028;-45
2023/02/06 12:19:15;;;;;;;9.63;5.35;;;;;;;17.24;35.46;100166.31;5090223;28;20039;-46
2023/02/06 12:21:52;;;;;;;13.13;4.93;;;;;;;18.43;34.46;100147.41;5090250;28;20043;-45
2023/02/06 12:24:31;;;;;;;8.20;5.30;;;;;;;19.18;32.79;100142.09;5091665;28;20055;-45
2023/02/06 12:27:04;;;;;;;8.55;4.93;;;;;;;19.53;31.47;100130.84;5091120;28;20157;-46
2023/02/06 12:29:43;;;;;;;9.45;5.57;;;;;;;19.20;31.76;100134.72;5091655;28;20108;-45
2023/02/06 12:32:47;;;;;;;8.60;5.10;;;;;;;19.06;31.84;100125.25;5095527;28;20028;-45
2023/02/06 12:35:52;;;;;;;14.52;5.53;;;;;;;18.62;32.11;100124.38;5095510;28;20057;-45
2023/02/06 12:38:35;;;;;;;7.45;5.20;;;;;;;17.62;33.05;100128.44;5095342;28;20086;-46